Time;durP1;ratioP1;P1;durP2;ratioP2;P2;SDS_P1;SDS_P2;PMS_P1;PMS_P2;Temp;Humidity;BMP_temperature;BMP_pressure;BME280_temperature;BME280_humidity;BME280_pressure;Samples;Min_cycle;Max_cycle;Signal;HPM_P1;HPM_P2
2021/07/02 00:02:22;;;;;;;;;31.75;28.50;;;;;21.29;58.64;101341.66;5004451;28;46129;-67
2021/07/02 00:04:47;;;;;;;;;30.75;29.75;;;;;21.23;58.67;101328.50;5032370;28;50804;-66
2021/07/02 00:07:13;;;;;;;;;28.50;28.50;;;;;21.24;58.98;101338.41;5004634;28;45844;-66
2021/07/02 00:09:38;;;;;;;;;27.75;26.00;;;;;21.22;59.41;101332.22;5017148;28;45195;-66
2021/07/02 00:12:04;;;;;;;;;34.50;31.50;;;;;21.21;59.47;101331.31;5016452;28;45266;-66
2021/07/02 00:14:29;;;;;;;;;35.75;31.75;;;;;21.19;59.73;101327.84;5017303;28;45140;-66
2021/07/02 00:16:54;;;;;;;;;29.00;26.75;;;;;21.19;59.56;101335.13;5017560;28;45262;-66
2021/07/02 00:19:20;;;;;;;;;35.75;32.25;;;;;21.17;59.76;101329.81;5017244;28;45193;-66
2021/07/02 00:21:45;;;;;;;;;36.50;32.50;;;;;21.18;59.37;101330.66;5017500;27;45322;-66
2021/07/02 00:24:11;;;;;;;;;30.00;29.25;;;;;21.14;59.15;101323.72;5017164;28;45481;-66
2021/07/02 00:26:36;;;;;;;;;37.00;31.25;;;;;21.11;59.30;101319.34;5017354;28;45888;-66
2021/07/02 00:29:03;;;;;;;;;33.50;31.75;;;;;21.09;59.55;101327.59;5017048;28;45352;-66
2021/07/02 00:31:29;;;;;;;;;43.25;32.50;;;;;21.14;59.31;101329.16;5017249;28;45373;-67
2021/07/02 00:33:54;;;;;;;;;34.25;30.75;;;;;;;;5007008;28;45444;-67
2021/07/02 00:36:19;;;;;;;;;32.25;30.50;;;;;21.04;59.69;101320.75;5017341;28;45323;-66
2021/07/02 00:38:45;;;;;;;;;32.50;29.00;;;;;20.98;59.79;101322.03;5016831;28;45256;-66
2021/07/02 00:41:10;;;;;;;;;33.50;31.25;;;;;21.04;59.31;101331.59;5016473;28;45368;-66
2021/07/02 00:43:38;;;;;;;;;35.25;32.75;;;;;21.03;60.06;101338.88;5017104;28;45259;-66
2021/07/02 00:46:03;;;;;;;;;34.00;31.75;;;;;20.99;60.03;101326.47;5017081;28;45479;-66
2021/07/02 00:48:29;;;;;;;;;32.50;32.25;;;;;20.98;60.05;101337.44;5016849;28;45365;-66
2021/07/02 00:50:54;;;;;;;;;34.75;31.75;;;;;20.97;60.25;101341.16;5016787;28;46112;-67
2021/07/02 00:53:22;;;;;;;;;30.25;28.25;;;;;20.95;59.90;101340.34;5016772;28;45155;-66
2021/07/02 00:55:49;;;;;;;;;39.00;32.75;;;;;20.92;60.24;101338.72;5016573;28;45428;-66
2021/07/02 00:58:14;;;;;;;;;31.75;31.25;;;;;20.87;60.55;101335.44;5016919;28;45327;-66
2021/07/02 01:00:40;;;;;;;;;30.75;29.00;;;;;20.81;60.11;101317.72;5016605;28;46244;-66
2021/07/02 01:03:05;;;;;;;;;35.25;31.50;;;;;20.85;60.15;101335.56;5016826;28;45452;-66
2021/07/02 01:05:30;;;;;;;;;36.75;31.00;;;;;20.84;60.27;101336.50;5016511;28;45952;-66
2021/07/02 01:07:56;;;;;;;;;34.75;32.75;;;;;20.82;60.21;101326.75;5016612;28;45518;-66
2021/07/02 01:10:21;;;;;;;;;37.75;33.00;;;;;20.74;60.54;101321.81;5015962;28;46251;-66
2021/07/02 01:12:47;;;;;;;;;37.75;32.75;;;;;20.75;60.83;101330.81;5016422;28;45189;-66
2021/07/02 01:15:26;;;;;;;;;35.00;31.50;;;;;20.74;60.52;101332.66;5016701;28;45300;-67
2021/07/02 01:17:52;;;;;;;;;40.50;35.75;;;;;20.73;60.83;101334.53;5016469;28;45350;-66
2021/07/02 01:20:19;;;;;;;;;37.25;33.50;;;;;20.69;60.63;101327.53;5016198;28;45293;-66
2021/07/02 01:22:44;;;;;;;;;37.25;34.50;;;;;20.70;61.12;101328.44;5016133;28;45289;-66
2021/07/02 01:25:10;;;;;;;;;36.75;33.25;;;;;20.65;60.47;101328.72;5018449;28;45653;-66
2021/07/02 01:27:36;;;;;;;;;36.75;33.00;;;;;20.67;60.83;101324.06;5019321;28;45411;-66
2021/07/02 01:30:02;;;;;;;;;39.00;32.75;;;;;20.64;61.08;101332.41;5019241;28;45265;-66
2021/07/02 01:32:28;;;;;;;;;36.50;32.25;;;;;20.64;61.02;101324.25;5019271;28;45325;-66
2021/07/02 01:34:53;;;;;;;;;33.50;31.25;;;;;20.63;61.02;101327.06;5019377;28;45613;-67
2021/07/02 01:37:19;;;;;;;;;30.25;29.00;;;;;20.61;60.99;101323.56;5019543;27;45300;-66
2021/07/02 01:39:44;;;;;;;;;30.50;28.25;;;;;20.58;61.18;101327.38;5018988;27;45302;-66
2021/07/02 01:42:11;;;;;;;;;35.00;30.75;;;;;20.54;61.56;101325.81;5018995;28;45236;-66
2021/07/02 01:44:37;;;;;;;;;34.25;31.25;;;;;20.57;61.57;101327.47;5034899;28;45299;-66
2021/07/02 01:47:04;;;;;;;;;31.75;28.00;;;;;20.52;61.65;101325.03;5019134;28;45466;-66
2021/07/02 01:49:29;;;;;;;;;31.25;29.25;;;;;20.40;61.62;101305.03;5019042;28;45400;-66
2021/07/02 01:51:55;;;;;;;;;23.25;19.00;;;;;20.53;61.62;101332.19;5001110;28;45334;-66
2021/07/02 01:54:20;;;;;;;;;37.25;33.75;;;;;20.45;61.79;101315.56;5019297;28;45301;-66
2021/07/02 01:56:49;;;;;;;;;33.75;32.00;;;;;20.51;61.66;101323.28;5018923;28;45374;-66
2021/07/02 01:59:18;;;;;;;;;34.50;31.50;;;;;20.44;61.72;101311.09;5019024;28;45253;-66
2021/07/02 02:01:46;;;;;;;;;34.50;32.00;;;;;20.46;61.80;101311.88;5018942;28;45444;-66
2021/07/02 02:04:12;;;;;;;;;32.75;30.75;;;;;20.48;62.23;101312.63;5019221;28;45322;-66
2021/07/02 02:06:37;;;;;;;;;34.50;31.00;;;;;20.46;61.83;101312.72;5018964;27;45212;-66
2021/07/02 02:09:05;;;;;;;;;32.00;28.50;;;;;20.45;61.88;101312.88;5018579;28;46259;-66
2021/07/02 02:11:30;;;;;;;;;34.50;32.50;;;;;20.33;61.95;101296.41;5018482;28;45559;-66
2021/07/02 02:13:56;;;;;;;;;33.00;31.00;;;;;20.34;62.20;101292.72;5019328;28;45219;-66
2021/07/02 02:16:21;;;;;;;;;33.25;29.75;;;;;20.35;61.96;101299.88;5018747;28;45420;-66
2021/07/02 02:18:47;;;;;;;;;34.25;30.75;;;;;20.39;62.00;101311.41;5018823;28;45887;-66
2021/07/02 02:21:13;;;;;;;;;32.00;31.00;;;;;20.38;62.29;101306.97;5018713;28;45432;-66
2021/07/02 02:23:38;;;;;;;;;32.75;28.25;;;;;20.27;62.26;101298.66;5015247;28;45276;-66
2021/07/02 02:26:03;;;;;;;;;29.75;29.75;;;;;20.31;62.52;101298.38;5018511;27;45522;-66
2021/07/02 02:28:28;;;;;;;;;35.25;32.25;;;;;20.32;62.39;101310.94;5018701;28;46036;-66
2021/07/02 02:30:54;;;;;;;;;32.50;31.25;;;;;20.29;62.38;101302.13;5018588;28;45218;-66
2021/07/02 02:33:19;;;;;;;;;31.25;30.00;;;;;20.30;62.55;101303.88;5018823;27;45403;-66
2021/07/02 02:35:45;;;;;;;;;36.50;33.00;;;;;20.27;62.86;101294.09;5018345;28;45413;-66
2021/07/02 02:38:10;;;;;;;;;37.25;31.25;;;;;20.29;62.45;101300.28;5018666;28;46071;-66
2021/07/02 02:40:35;;;;;;;;;36.50;33.75;;;;;20.23;62.93;101288.97;5017656;28;45395;-66
2021/07/02 02:43:02;;;;;;;;;33.75;30.75;;;;;20.16;63.00;101288.47;5018871;28;45354;-66
2021/07/02 02:45:27;;;;;;;;;36.25;33.25;;;;;20.24;62.76;101302.41;5000616;28;45401;-66
2021/07/02 02:47:53;;;;;;;;;34.00;32.25;;;;;20.19;62.70;101299.13;5000800;28;47081;-66
2021/07/02 02:50:18;;;;;;;;;35.50;31.50;;;;;20.22;62.99;101300.78;5018424;28;45309;-66
2021/07/02 02:52:43;;;;;;;;;33.00;31.25;;;;;20.21;63.05;101299.03;5018597;28;45286;-66
2021/07/02 02:55:09;;;;;;;;;30.50;29.50;;;;;20.19;62.85;101296.41;5000313;28;45925;-66
2021/07/02 02:57:34;;;;;;;;;31.00;30.00;;;;;20.16;63.32;101285.78;5018329;28;45365;-66
2021/07/02 03:00:00;;;;;;;;;29.00;28.00;;;;;20.20;63.15;101295.47;5018467;28;45179;-66
2021/07/02 03:02:25;;;;;;;;;30.00;27.75;;;;;20.14;63.11;101282.28;5018550;28;45232;-66
2021/07/02 03:04:52;;;;;;;;;27.75;27.25;;;;;20.18;63.56;101289.28;5018144;27;45471;-66
2021/07/02 03:07:18;;;;;;;;;32.75;30.75;;;;;20.12;63.52;101284.25;5018232;28;45399;-66
2021/07/02 03:09:44;;;;;;;;;39.75;35.25;;;;;20.19;63.50;101293.72;5017854;28;45396;-66
2021/07/02 03:12:09;;;;;;;;;32.50;31.75;;;;;20.16;63.47;101289.38;5017971;28;45360;-66
2021/07/02 03:14:34;;;;;;;;;35.50;32.00;;;;;20.18;63.37;101287.44;5018205;28;45510;-66
2021/07/02 03:17:00;;;;;;;;;31.00;27.00;;;;;20.13;63.59;101283.25;5033441;28;47285;-66
2021/07/02 03:19:25;;;;;;;;;30.25;28.75;;;;;20.10;63.21;101278.06;5017990;28;45367;-66
2021/07/02 03:21:50;;;;;;;;;34.50;31.00;;;;;20.16;63.59;101294.78;5018423;28;45329;-66
2021/07/02 03:24:16;;;;;;;;;34.25;31.75;;;;;20.12;63.62;101285.09;5014255;28;45423;-66
2021/07/02 03:26:41;;;;;;;;;33.25;31.00;;;;;20.16;63.82;101296.63;5017927;28;45342;-66
2021/07/02 03:29:07;;;;;;;;;31.75;28.50;;;;;20.16;63.65;101289.38;5017991;28;45278;-66
2021/07/02 03:31:33;;;;;;;;;29.75;28.50;;;;;20.11;63.81;101285.19;5018352;27;45455;-66
2021/07/02 03:33:58;;;;;;;;;35.25;33.50;;;;;20.07;63.68;101281.81;5007943;28;45354;-66
2021/07/02 03:36:24;;;;;;;;;32.50;31.75;;;;;20.14;63.83;101291.28;5018012;28;45716;-66
2021/07/02 03:38:49;;;;;;;;;38.00;33.25;;;;;20.13;63.67;101294.09;5017604;28;45223;-66
2021/07/02 03:41:15;;;;;;;;;35.50;33.25;;;;;20.09;63.59;101284.44;5017540;28;45222;-66
2021/07/02 03:43:41;;;;;;;;;35.25;32.50;;;;;20.10;63.80;101287.03;5000027;28;45862;-66
2021/07/02 03:46:06;;;;;;;;;33.75;31.50;;;;;20.03;63.63;101273.97;5017165;28;45251;-66
2021/07/02 03:48:31;;;;;;;;;34.75;30.25;;;;;20.08;63.91;101289.00;5017165;28;45359;-66
2021/07/02 03:50:57;;;;;;;;;39.75;33.75;;;;;20.09;63.92;101292.56;5017866;28;45808;-66
2021/07/02 03:53:22;;;;;;;;;38.00;32.00;;;;;20.02;64.05;101277.66;5017562;28;45384;-66
2021/07/02 03:55:48;;;;;;;;;36.25;33.25;;;;;20.07;63.87;101292.66;5017113;28;46092;-67
2021/07/02 03:58:13;;;;;;;;;33.50;32.50;;;;;19.98;63.87;101280.56;5017695;28;45439;-66
2021/07/02 04:00:39;;;;;;;;;33.75;31.00;;;;;20.05;63.82;101286.47;5017566;28;45303;-66
2021/07/02 04:03:04;;;;;;;;;36.75;32.25;;;;;20.03;64.02;101288.41;5017655;28;45297;-66
2021/07/02 04:05:30;;;;;;;;;30.50;29.25;;;;;20.03;63.91;101301.97;5017310;27;45358;-66
2021/07/02 04:07:55;;;;;;;;;34.50;31.25;;;;;19.98;64.15;101290.56;5017327;28;45417;-67
2021/07/02 04:10:20;;;;;;;;;36.75;32.00;;;;;19.99;63.69;101293.13;5017406;28;45294;-66
2021/07/02 04:12:46;;;;;;;;;31.25;30.50;;;;;19.96;64.03;101292.47;5017289;28;45313;-66
2021/07/02 04:15:11;;;;;;;;;30.75;29.75;;;;;19.96;64.02;101293.34;5017273;28;46095;-66
2021/07/02 04:17:38;;;;;;;;;39.25;32.75;;;;;19.86;63.96;101284.03;5017459;28;45218;-66
2021/07/02 04:20:08;;;;;;;;;31.50;31.00;;;;;19.94;64.21;101303.38;5017289;28;45372;-66
2021/07/02 04:22:34;;;;;;;;;29.50;29.00;;;;;19.87;64.17;101293.91;5032653;28;45324;-66
2021/07/02 04:24:59;;;;;;;;;34.25;32.00;;;;;19.78;64.26;101284.53;5016911;28;45470;-66
2021/07/02 04:27:25;;;;;;;;;35.00;31.50;;;;;19.68;64.05;101282.44;5017190;28;45615;-66
2021/07/02 04:29:50;;;;;;;;;36.50;32.25;;;;;19.84;64.41;101307.66;5017415;28;45332;-66
2021/07/02 04:32:15;;;;;;;;;30.50;29.75;;;;;19.75;64.29;101298.25;5017019;28;45429;-66
2021/07/02 04:34:41;;;;;;;;;28.00;27.00;;;;;19.81;64.34;101315.97;5017195;27;46422;-66
2021/07/02 04:37:06;;;;;;;;;30.25;29.00;;;;;19.78;64.34;101306.22;5016937;28;45282;-66
2021/07/02 04:39:32;;;;;;;;;34.00;29.25;;;;;19.82;64.27;101320.44;5017089;28;45218;-66
2021/07/02 04:41:57;;;;;;;;;32.00;30.25;;;;;19.83;64.88;101311.34;5016825;28;45745;-66
2021/07/02 04:44:22;;;;;;;;;29.00;28.75;;;;;19.83;64.38;101310.44;5016903;28;45798;-66
2021/07/02 04:46:48;;;;;;;;;28.25;27.25;;;;;19.86;64.49;101311.13;4999232;28;45165;-66
2021/07/02 04:49:13;;;;;;;;;29.25;27.50;;;;;19.86;64.56;101311.13;5016848;28;45463;-67
2021/07/02 04:51:38;;;;;;;;;31.00;29.25;;;;;19.86;64.85;101310.25;5016918;28;45317;-66
2021/07/02 04:54:04;;;;;;;;;36.25;31.75;;;;;19.83;64.73;101318.56;5016536;28;45202;-66
2021/07/02 04:56:30;;;;;;;;;31.25;30.50;;;;;19.80;65.03;101303.41;5016758;28;45238;-67
2021/07/02 04:58:55;;;;;;;;;31.25;29.75;;;;;19.71;64.48;101293.09;5018617;28;45502;-66
2021/07/02 05:01:25;;;;;;;;;38.50;34.75;;;;;19.86;64.36;101310.25;5019706;28;45164;-67
2021/07/02 05:03:50;;;;;;;;;30.75;29.75;;;;;19.77;64.59;101292.75;5019311;28;46912;-66
2021/07/02 05:06:16;;;;;;;;;34.00;30.75;;;;;19.86;64.82;101310.25;5019793;27;45415;-66
2021/07/02 05:08:42;;;;;;;;;30.25;29.00;;;;;19.87;64.98;101312.88;5019326;28;45273;-66
2021/07/02 05:11:12;;;;;;;;;32.25;31.50;;;;;19.89;64.67;101310.94;5001629;28;46245;-66
2021/07/02 05:13:38;;;;;;;;;31.75;30.75;;;;;19.94;65.25;101314.22;5001400;28;48220;-66
2021/07/02 05:16:04;;;;;;;;;35.00;32.50;;;;;19.87;64.96;101310.16;5019694;28;45677;-66
2021/07/02 05:18:30;;;;;;;;;31.00;30.00;;;;;19.97;65.11;101315.88;5001618;28;45414;-67
2021/07/02 05:20:55;;;;;;;;;35.25;31.50;;;;;19.98;65.02;101321.22;5019521;28;45262;-67
2021/07/02 05:23:21;;;;;;;;;32.25;29.75;;;;;19.98;65.09;101312.22;5015682;28;45709;-66
2021/07/02 05:25:46;;;;;;;;;32.25;30.00;;;;;19.93;65.36;101303.47;5001368;28;45762;-66
2021/07/02 05:28:11;;;;;;;;;33.00;31.50;;;;;20.04;65.21;101310.94;5019743;28;45228;-66
2021/07/02 05:30:36;;;;;;;;;32.50;31.75;;;;;19.96;65.20;101297.88;5019136;28;45901;-67
2021/07/02 05:33:02;;;;;;;;;36.50;33.00;;;;;20.06;65.26;101303.59;5015949;28;45992;-66
2021/07/02 05:35:27;;;;;;;;;32.75;31.75;;;;;19.96;65.17;101293.34;5010857;28;45468;-70
2021/07/02 05:37:53;;;;;;;;;29.25;29.25;;;;;20.11;65.27;101312.28;4984448;28;45332;-71
2021/07/02 05:40:19;;;;;;;;;32.50;30.75;;;;;20.14;65.00;101314.81;5019490;28;45478;-71
2021/07/02 05:42:45;;;;;;;;;29.75;29.00;;;;;20.18;64.84;101316.38;5019580;28;46347;-70
2021/07/02 05:45:11;;;;;;;;;40.75;34.00;;;;;20.19;65.29;101312.69;5019461;28;45212;-70
2021/07/02 05:47:39;;;;;;;;;34.50;32.00;;;;;20.23;65.03;101316.97;5020670;28;45287;-70
2021/07/02 05:50:06;;;;;;;;;38.00;34.00;;;;;20.20;65.11;101302.69;5028917;27;45322;-71
2021/07/02 05:52:34;;;;;;;;;38.75;35.00;;;;;20.25;64.85;101319.56;5015436;28;46376;-72
2021/07/02 05:55:00;;;;;;;;;40.00;34.25;;;;;20.27;65.03;101321.19;5018707;28;45594;-73
2021/07/02 05:57:25;;;;;;;;;40.50;36.75;;;;;20.30;64.80;101329.13;5007807;28;45297;-72
2021/07/02 05:59:51;;;;;;;;;37.75;33.75;;;;;20.30;64.87;101321.00;5000640;28;45639;-73
2021/07/02 06:02:16;;;;;;;;;37.75;32.25;;;;;20.35;64.82;101331.56;5009617;28;45447;-73
2021/07/02 06:04:41;;;;;;;;;42.75;36.00;;;;;20.31;65.04;101316.44;5010298;28;45486;-73
2021/07/02 06:07:07;;;;;;;;;39.00;33.25;;;;;20.15;64.65;101281.34;5013331;28;45311;-73
2021/07/02 06:09:35;;;;;;;;;37.75;34.50;;;;;20.33;64.74;101309.06;5082322;27;45427;-73
2021/07/02 06:12:01;;;;;;;;;35.50;33.25;;;;;20.35;64.68;101313.44;4998500;28;47229;-73
2021/07/02 06:14:30;;;;;;;;;37.75;33.50;;;;;20.33;64.35;101306.38;5013584;28;45388;-72
2021/07/02 06:16:55;;;;;;;;;33.75;31.25;;;;;20.42;64.20;101308.50;5015169;28;45439;-72
2021/07/02 06:19:20;;;;;;;;;41.50;35.50;;;;;20.55;64.37;101328.41;5027011;28;45999;-72
2021/07/02 06:21:46;;;;;;;;;37.25;34.00;;;;;20.58;64.06;101324.66;5013050;28;45811;-72
2021/07/02 06:24:11;;;;;;;;;40.75;35.50;;;;;20.48;64.73;101302.69;5027085;28;45893;-72
2021/07/02 06:26:37;;;;;;;;;47.75;38.75;;;;;20.63;64.41;101319.84;5009344;28;45970;-72
2021/07/02 06:29:02;;;;;;;;;44.25;35.75;;;;;20.57;64.08;101309.34;5006922;28;45551;-72
2021/07/02 06:31:28;;;;;;;;;47.00;39.25;;;;;20.54;64.14;101298.69;5015759;28;47003;-73
2021/07/02 06:33:53;;;;;;;;;48.50;40.25;;;;;20.64;64.28;101321.56;5018013;28;45469;-73
2021/07/02 06:36:18;;;;;;;;;42.50;36.75;;;;;20.64;63.79;101321.56;5064059;27;45463;-70
2021/07/02 06:38:43;;;;;;;;;44.75;37.50;;;;;20.64;63.81;101321.56;5020736;27;45415;-72
2021/07/02 06:41:09;;;;;;;;;43.50;38.50;;;;;20.56;64.50;101304.88;5055176;27;45305;-71
2021/07/02 06:43:34;;;;;;;;;43.25;38.00;;;;;20.66;64.21;101321.44;5018257;28;45421;-72
2021/07/02 06:45:59;;;;;;;;;50.75;40.75;;;;;20.63;64.00;101317.13;5016637;28;45341;-70
2021/07/02 06:48:25;;;;;;;;;46.00;38.00;;;;;20.64;63.96;101310.69;5016875;28;45431;-70
2021/07/02 06:50:50;;;;;;;;;46.00;38.50;;;;;20.71;64.12;101317.47;5011626;28;47012;-70
2021/07/02 06:53:16;;;;;;;;;47.00;38.25;;;;;20.79;64.11;101318.81;5016049;28;45578;-63
2021/07/02 06:55:42;;;;;;;;;54.00;42.25;;;;;20.74;63.95;101313.69;5017773;27;45297;-64
2021/07/02 06:58:10;;;;;;;;;48.75;37.75;;;;;20.83;64.16;101326.66;5017854;28;45537;-64
2021/07/02 07:00:40;;;;;;;;;48.00;40.00;;;;;20.78;64.25;101319.78;5018155;28;46364;-65
2021/07/02 07:03:08;;;;;;;;;49.50;39.50;;;;;20.86;64.24;101333.69;5000067;28;45452;-64
2021/07/02 07:05:35;;;;;;;;;52.25;42.25;;;;;20.89;64.44;101336.22;5017854;28;45206;-65
2021/07/02 07:08:02;;;;;;;;;52.00;41.50;;;;;20.90;64.53;101332.53;5017791;28;45505;-65
2021/07/02 07:10:30;;;;;;;;;50.75;40.25;;;;;20.92;64.25;101331.44;5017591;28;46295;-66
2021/07/02 07:12:56;;;;;;;;;52.25;42.25;;;;;20.97;63.78;101344.72;5017735;28;45381;-67
2021/07/02 07:15:21;;;;;;;;;50.25;40.75;;;;;20.98;63.94;101338.34;5018195;28;45336;-65
2021/07/02 07:17:47;;;;;;;;;52.25;42.25;;;;;21.02;63.95;101334.44;5017919;27;45288;-64
2021/07/02 07:20:12;;;;;;;;;49.25;40.75;;;;;21.03;63.72;101333.47;5017825;27;46180;-65
2021/07/02 07:22:43;;;;;;;;;51.75;40.50;;;;;21.10;63.97;101336.63;5016420;28;45225;-71
2021/07/02 07:25:59;;;;;;;;;;;;;;;;;;;;;
2021/07/02 07:28:30;;;;;;;;;43.00;36.75;;;;;21.08;62.85;101311.41;5016797;28;74401;-72
2021/07/02 07:31:09;;;;;;;;;;;;;;;;;;;;;
2021/07/02 07:33:48;;;;;;;;;45.00;38.75;;;;;21.26;62.58;101323.72;5010665;28;72375;-72
2021/07/02 07:36:26;;;;;;;;;;;;;;;;;;;;;
2021/07/02 07:38:55;;;;;;;;;47.75;39.75;;;;;21.24;62.53;101297.69;5016264;28;72855;-72
2021/07/02 07:41:23;;;;;;;;;50.75;42.00;;;;;21.33;62.45;101309.75;5017286;28;45464;-71
2021/07/02 07:43:48;;;;;;;;;53.25;44.50;;;;;21.36;62.53;101309.53;5017452;28;45229;-70
2021/07/02 07:46:23;;;;;;;;;46.75;37.75;;;;;21.37;62.72;101303.16;5017878;28;45347;-70
2021/07/02 07:48:49;;;;;;;;;41.75;35.25;;;;;21.41;61.82;101299.22;5017527;28;45270;-71
2021/07/02 07:51:18;;;;;;;;;34.50;32.50;;;;;21.59;61.75;101329.72;4999649;28;48096;-71
2021/07/02 07:53:43;;;;;;;;;38.25;34.50;;;;;21.62;61.52;101318.63;5017168;27;45396;-70
2021/07/02 07:56:12;;;;;;;;;37.50;31.75;;;;;21.76;61.46;101336.69;4999630;28;45302;-70
2021/07/02 07:58:47;;;;;;;;;36.50;31.00;;;;;21.88;60.78;101343.09;5017231;28;45692;-71
2021/07/02 08:01:13;;;;;;;;;41.50;36.00;;;;;21.92;60.63;101339.16;5017398;28;45263;-78
2021/07/02 08:03:38;;;;;;;;;34.75;31.50;;;;;21.88;60.47;101324.06;5016964;28;45381;-69
2021/07/02 08:06:13;;;;;;;;;35.75;31.50;;;;;21.86;60.17;101315.16;5017623;27;46048;-79
2021/07/02 08:09:21;;;;;;;;;;;;;;;;;;;;;
2021/07/02 08:13:31;;;;;;;;;;;;;;;;;;;;;
2021/07/02 08:19:29;;;;;;;;;;;;;;;;;;;;;
2021/07/02 08:21:58;;;;;;;;;29.25;27.75;;;;;22.07;59.03;101296.44;5014621;28;72886;-77
2021/07/02 08:24:28;;;;;;;;;22.50;21.75;;;;;22.35;57.89;101344.28;4998828;28;47976;-77
2021/07/02 08:27:02;;;;;;;;;20.75;20.75;;;;;22.08;57.69;101281.88;5017098;28;45657;-77
2021/07/02 08:29:28;;;;;;;;;21.00;19.75;;;;;22.25;56.94;101295.09;5017241;28;45444;-77
2021/07/02 08:31:56;;;;;;;;;21.25;19.25;;;;;22.20;57.22;101292.72;5017082;28;45377;-80
2021/07/02 08:34:32;;;;;;;;;22.75;20.75;;;;;22.23;56.79;101285.31;5027789;28;47203;-78
2021/07/02 08:37:11;;;;;;;;;;;;;;;;;;;;;
2021/07/02 08:39:36;;;;;;;;;20.75;20.75;;;;;22.58;56.85;101329.84;5003606;28;69087;-79
2021/07/02 08:42:05;;;;;;;;;18.75;17.25;;;;;22.38;56.73;101282.38;5016610;28;45574;-78
2021/07/02 08:44:41;;;;;;;;;18.50;18.25;;;;;22.68;56.64;101327.34;5016642;28;46209;-78
2021/07/02 08:47:14;;;;;;;;;18.75;18.75;;;;;22.47;55.94;101282.66;4999024;28;45533;-78
2021/07/02 08:49:51;;;;;;;;;17.25;16.25;;;;;22.77;55.17;101320.34;5017012;28;45411;-79
2021/07/02 08:52:25;;;;;;;;;15.00;14.25;;;;;22.82;55.28;101309.09;4998844;28;45458;-78
2021/07/02 08:54:53;;;;;;;;;17.75;14.75;;;;;22.70;55.02;101279.13;4998674;28;47131;-79
2021/07/02 08:57:44;;;;;;;;;22.50;20.00;;;;;22.82;55.73;101295.50;5016562;28;45589;-79
2021/07/02 09:00:19;;;;;;;;;18.00;14.75;;;;;22.83;54.25;101303.53;4999000;28;45447;-79
2021/07/02 09:02:44;;;;;;;;;16.25;16.25;;;;;22.69;54.42;101268.34;4998844;28;45795;-75
2021/07/02 09:05:35;;;;;;;;;15.00;15.00;;;;;22.97;53.97;101317.97;4998395;28;48092;-78
2021/07/02 09:11:45;;;;;;;;;17.25;14.75;;;;;23.00;54.19;101304.13;5019351;28;45460;-71
2021/07/02 09:14:36;;;;;;;;;;;;;;;;;;;;;
2021/07/02 09:17:48;;;;;;;;;;;;;;;;;;;;;
2021/07/02 09:20:47;;;;;;;;;;;;;;;;;;;;;
2021/07/02 09:23:40;;;;;;;;;14.00;14.00;;;;;23.11;53.40;101298.78;5012005;28;68845;-72
2021/07/02 09:27:03;;;;;;;;;48.75;41.25;;;;;23.23;53.02;101310.56;5016116;28;45389;-72
2021/07/02 09:30:14;;;;;;;;;;;;;;;;;;;;;
2021/07/02 09:33:39;;;;;;;;;;;;;;;;;;;;;
2021/07/02 09:40:18;;;;;;;;;;;;;;;;;;;;;
2021/07/02 09:46:39;;;;;;;;;;;;;;;;;;;;;
2021/07/02 09:49:50;;;;;;;;;13.50;13.50;;;;;23.33;53.29;101246.22;5009045;28;45475;-72
2021/07/02 09:52:31;;;;;;;;;;;;;;;;;;;;;
2021/07/02 09:55:53;;;;;;;;;;;;;;;;;;;;;
2021/07/02 10:05:55;;;;;;;;;;;;;;;;;;;;;
2021/07/02 10:09:04;;;;;;;;;17.50;16.00;;;;;24.06;51.91;101301.34;4963725;28;75330;-72
2021/07/02 10:16:25;;;;;;;;;;;;;;;;;;;;;
2021/07/02 10:22:30;;;;;;;;;15.75;15.00;;;;;24.26;52.06;101294.28;4935214;28;46445;-72
2021/07/02 10:28:47;;;;;;;;;16.00;15.25;;;;;23.97;51.64;101251.16;4944134;28;45384;-71
2021/07/02 10:32:02;;;;;;;;;;;;;;;;;;;;;
2021/07/02 10:34:38;;;;;;;;;;;;;;;;;;;;;
2021/07/02 10:37:13;;;;;;;;;13.75;13.75;;;;;24.03;51.85;101257.97;5017290;28;72717;-72
2021/07/02 10:40:00;;;;;;;;;17.00;15.75;;;;;23.90;51.52;101229.97;4986738;28;45418;-71
2021/07/02 10:43:05;;;;;;;;;16.50;15.00;;;;;24.28;52.18;101283.25;5013202;27;45548;-72
2021/07/02 10:46:03;;;;;;;;;;;;;;;;;;;;;
2021/07/02 10:49:01;;;;;;;;;12.50;12.50;;;;;24.45;51.43;101290.91;5004303;28;73357;-72
2021/07/02 10:52:24;;;;;;;;;;;;;;;;;;;;;
2021/07/02 10:55:25;;;;;;;;;15.25;13.50;;;;;24.26;50.58;101250.63;5003014;27;45330;-72
2021/07/02 10:58:12;;;;;;;;;;;;;;;;;;;;;
2021/07/02 11:01:29;;;;;;;;;15.75;13.50;;;;;24.65;50.57;101288.41;4995509;28;72755;-72
2021/07/02 11:04:53;;;;;;;;;12.25;12.25;;;;;24.66;50.72;101281.94;4998063;28;45471;-72
2021/07/02 11:07:46;;;;;;;;;;;;;;;;;;;;;
2021/07/02 11:10:26;;;;;;;;;;;;;;;;;;;;;
2021/07/02 11:17:07;;;;;;;;;;;;;;;;;;;;;
2021/07/02 11:20:35;;;;;;;;;;;;;;;;;;;;;
2021/07/02 11:51:16;;;;;;;;;14.00;12.25;;;;;24.81;48.73;101192.44;4866830;29;45658;-73
2021/07/02 11:53:55;;;;;;;;;11.75;10.75;;;;;24.87;48.38;101209.16;4840407;29;46019;-71
2021/07/02 11:56:48;;;;;;;;;12.00;12.00;;;;;25.15;48.08;101240.41;4846549;29;45885;-73
2021/07/02 11:59:16;;;;;;;;;10.25;10.00;;;;;25.00;48.65;101222.63;5089721;22;46611;-72
2021/07/02 12:01:49;;;;;;;;;15.50;14.75;;;;;25.18;48.26;101232.97;5076342;27;45598;-72
2021/07/02 12:05:01;;;;;;;;;11.25;11.00;;;;;25.18;48.29;101238.44;5078858;27;45691;-72
2021/07/02 12:08:15;;;;;;;;;13.50;11.75;;;;;25.18;48.40;101230.25;5070911;27;45799;-72
2021/07/02 12:10:45;;;;;;;;;12.00;12.00;;;;;25.07;48.38;101212.91;5020917;28;45927;-72
2021/07/02 12:13:11;;;;;;;;;11.50;11.25;;;;;25.22;48.12;101221.63;5031382;28;45710;-72
2021/07/02 12:16:09;;;;;;;;;14.75;14.25;;;;;25.27;47.99;101235.78;5045608;28;45402;-72
2021/07/02 12:19:21;;;;;;;;;;;;;;;;;;;;;
2021/07/02 12:22:35;;;;;;;;;;;;;;;;;;;;;
2021/07/02 12:25:38;;;;;;;;;;;;;;;;;;;;;
2021/07/02 12:28:04;;;;;;;;;5.00;5.00;;;;;25.29;46.39;101216.53;5065224;28;72494;-72
2021/07/02 12:30:42;;;;;;;;;;;;;;;;;;;;;
2021/07/02 12:33:21;;;;;;;;;8.00;8.00;;;;;25.35;47.20;101215.16;5078145;27;71459;-72
2021/07/02 12:36:08;;;;;;;;;11.75;9.00;;;;;25.20;46.72;101190.84;5082096;27;46484;-72
2021/07/02 12:38:54;;;;;;;;;10.75;10.00;;;;;25.23;45.89;101184.28;5071276;28;45362;-72
2021/07/02 12:41:22;;;;;;;;;11.25;9.25;;;;;25.27;46.67;101200.28;5056923;28;45472;-72
2021/07/02 12:44:30;;;;;;;;;;;;;;;;;;;;;
2021/07/02 12:47:04;;;;;;;;;11.50;10.00;;;;;25.29;46.13;101198.28;5071701;28;75453;-72
2021/07/02 12:49:45;;;;;;;;;7.50;6.75;;;;;25.44;46.52;101219.78;5077498;27;45393;-72
2021/07/02 12:55:19;;;;;;;;;11.00;11.00;;;;;25.45;46.28;101229.72;5079402;28;45228;-72
2021/07/02 12:57:49;;;;;;;;;12.00;12.00;;;;;25.44;46.80;101212.47;5070825;27;45321;-72
2021/07/02 13:00:53;;;;;;;;;10.00;10.00;;;;;25.33;46.31;101185.22;5071458;28;45472;-72
2021/07/02 13:15:03;;;;;;;;;;;;;;;;;;;;;
2021/07/02 13:18:41;;;;;;;;;9.25;9.25;;;;;25.30;46.73;101183.63;4967670;28;67583;-72
2021/07/02 13:21:27;;;;;;;;;11.25;11.25;;;;;25.44;46.78;101206.13;5027378;27;45560;-72
2021/07/02 13:24:12;;;;;;;;;11.25;11.25;;;;;25.27;46.60;101180.28;5081429;27;46422;-73
2021/07/02 13:27:03;;;;;;;;;9.50;9.50;;;;;25.10;46.67;101148.97;5082632;28;45486;-73
2021/07/02 13:29:42;;;;;;;;;12.00;11.00;;;;;25.26;46.58;101173.03;5091649;27;45400;-73
2021/07/02 13:32:14;;;;;;;;;9.00;9.00;;;;;25.44;46.45;101195.19;5078258;27;45462;-75
2021/07/02 13:35:57;;;;;;;;;;;;;;;;;;;;;
2021/07/02 13:39:07;;;;;;;;;8.50;8.50;;;;;24.98;45.53;101133.66;4947897;28;73025;-74
2021/07/02 13:45:06;;;;;;;;;9.50;9.50;;;;;25.02;46.19;101149.63;5036039;27;45602;-73
2021/07/02 13:47:34;;;;;;;;;9.50;8.00;;;;;25.06;46.23;101151.09;5079590;28;47095;-73
2021/07/02 13:49:59;;;;;;;;;10.00;9.00;;;;;25.36;46.56;101187.69;5082405;27;45452;-73